Time;durP1;ratioP1;P1;durP2;ratioP2;P2;SDS_P1;SDS_P2;PMS_P1;PMS_P2;Temp;Humidity;BMP_temperature;BMP_pressure;BME280_temperature;BME280_humidity;BME280_pressure;Samples;Min_cycle;Max_cycle;Signal;HPM_P1;HPM_P2
2023/12/23 00:01:37;;;;;;;2.50;0.90;;;3.90;99.90;;;;;;6213011;23;20083;-63
2023/12/23 00:04:23;;;;;;;2.28;0.70;;;3.80;99.90;;;;;;6191355;23;20079;-62
2023/12/23 00:07:12;;;;;;;3.47;0.82;;;3.80;99.90;;;;;;6213708;23;20005;-64
2023/12/23 00:09:58;;;;;;;1.70;0.98;;;3.80;99.90;;;;;;6210550;23;20031;-63
2023/12/23 00:12:44;;;;;;;1.23;0.88;;;3.90;99.90;;;;;;6210843;23;20013;-63
2023/12/23 00:15:30;;;;;;;2.05;1.05;;;3.90;99.90;;;;;;6210786;23;20008;-64
2023/12/23 00:18:16;;;;;;;1.60;0.70;;;3.90;99.90;;;;;;6211193;23;20024;-64
2023/12/23 00:21:02;;;;;;;1.50;0.93;;;3.90;99.90;;;;;;6212890;23;20039;-63
2023/12/23 00:23:48;;;;;;;1.33;0.90;;;3.90;99.90;;;;;;6211473;23;20437;-64
2023/12/23 00:26:34;;;;;;;0.77;0.75;;;3.90;99.90;;;;;;6211771;23;20012;-63
2023/12/23 00:29:20;;;;;;;1.20;0.80;;;3.90;99.90;;;;;;6191117;23;20005;-63
2023/12/23 00:32:06;;;;;;;2.10;1.30;;;3.90;99.90;;;;;;6211669;23;20042;-64
2023/12/23 00:34:52;;;;;;;0.80;0.70;;;3.90;99.90;;;;;;6210077;23;20019;-63
2023/12/23 00:37:38;;;;;;;1.20;0.98;;;3.90;99.90;;;;;;6212227;23;20036;-63
2023/12/23 00:40:25;;;;;;;3.25;0.65;;;3.90;99.90;;;;;;6210419;23;20067;-63
2023/12/23 00:43:11;;;;;;;0.90;0.63;;;3.90;99.90;;;;;;6214089;23;20012;-62
2023/12/23 00:45:56;;;;;;;1.63;0.80;;;3.90;99.90;;;;;;6210687;23;20448;-62
2023/12/23 00:48:42;;;;;;;1.38;0.77;;;3.90;99.90;;;;;;6211271;23;20067;-62
2023/12/23 00:51:28;;;;;;;1.58;1.20;;;3.90;99.90;;;;;;6213808;23;20456;-62
2023/12/23 00:54:17;;;;;;;0.85;0.73;;;4.00;99.90;;;;;;6210269;23;20021;-63
2023/12/23 00:57:03;;;;;;;1.52;0.85;;;3.90;99.90;;;;;;6211311;23;20074;-62
2023/12/23 00:59:49;;;;;;;2.00;0.95;;;3.90;99.90;;;;;;6210933;23;20074;-62
2023/12/23 01:02:35;;;;;;;2.67;1.10;;;3.90;99.90;;;;;;6210024;23;20112;-63
2023/12/23 01:05:20;;;;;;;1.55;0.80;;;3.90;99.90;;;;;;6208683;23;20417;-62
2023/12/23 01:08:06;;;;;;;1.65;1.10;;;3.90;99.90;;;;;;6209957;23;20040;-63
2023/12/23 01:10:52;;;;;;;1.90;0.98;;;3.90;99.90;;;;;;6210038;23;20012;-63
2023/12/23 01:13:38;;;;;;;9.05;1.08;;;3.90;99.90;;;;;;6211164;23;20009;-62
2023/12/23 01:16:24;;;;;;;2.10;1.00;;;3.90;99.90;;;;;;6212161;23;20013;-62
2023/12/23 01:19:10;;;;;;;3.85;1.67;;;3.90;99.90;;;;;;6209240;23;20027;-62
2023/12/23 01:21:57;;;;;;;3.60;1.65;;;4.00;99.90;;;;;;6189825;23;20012;-63
2023/12/23 01:24:43;;;;;;;3.30;0.93;;;4.00;99.90;;;;;;6210502;23;20020;-64
2023/12/23 01:27:29;;;;;;;1.40;1.20;;;4.10;99.90;;;;;;6211602;23;20009;-63
2023/12/23 01:30:15;;;;;;;3.55;1.25;;;4.00;99.90;;;;;;6211315;23;20020;-63
2023/12/23 01:33:01;;;;;;;3.47;1.20;;;4.00;99.90;;;;;;6211770;23;20109;-62
2023/12/23 01:35:47;;;;;;;3.15;1.08;;;4.00;99.90;;;;;;6210413;23;20019;-63
2023/12/23 01:38:33;;;;;;;3.90;1.15;;;4.00;99.90;;;;;;6207064;23;20071;-63
2023/12/23 01:41:19;;;;;;;2.83;1.23;;;3.90;99.90;;;;;;6210549;23;20341;-63
2023/12/23 01:44:05;;;;;;;2.78;1.13;;;4.00;99.90;;;;;;6212670;23;20344;-64
2023/12/23 01:46:53;;;;;;;4.15;1.20;;;4.00;99.90;;;;;;6210449;23;20039;-63
2023/12/23 01:49:41;;;;;;;4.13;1.33;;;4.00;99.90;;;;;;6210283;23;20349;-62
2023/12/23 01:52:27;;;;;;;3.25;1.13;;;4.00;99.90;;;;;;6212719;23;20456;-62
2023/12/23 01:55:13;;;;;;;1.88;0.98;;;4.10;99.90;;;;;;6210660;23;20111;-63
2023/12/23 01:57:59;;;;;;;1.73;0.93;;;4.00;99.90;;;;;;6186814;23;20127;-62
2023/12/23 02:00:45;;;;;;;2.90;1.02;;;4.00;99.90;;;;;;6211676;23;20005;-62
2023/12/23 02:03:31;;;;;;;2.38;1.50;;;4.00;99.90;;;;;;6210555;23;20071;-61
2023/12/23 02:06:17;;;;;;;2.67;1.35;;;4.00;99.90;;;;;;6210660;23;20004;-63
2023/12/23 02:09:04;;;;;;;2.75;1.15;;;4.00;99.90;;;;;;6209606;23;20009;-62
2023/12/23 02:12:13;;;;;;;2.88;0.95;;;4.00;99.90;;;;;;6210865;23;20028;-62
2023/12/23 02:15:09;;;;;;;1.33;0.80;;;4.00;99.90;;;;;;6207946;23;20016;-62
2023/12/23 02:17:59;;;;;;;2.40;1.10;;;4.00;99.90;;;;;;6210843;23;20015;-63
2023/12/23 02:20:51;;;;;;;6.05;1.08;;;4.00;99.90;;;;;;6211376;23;20463;-63
2023/12/23 02:23:37;;;;;;;3.10;0.95;;;4.00;99.90;;;;;;6208816;23;20083;-62
2023/12/23 02:26:26;;;;;;;2.50;1.10;;;4.00;99.90;;;;;;6210279;23;20191;-62
2023/12/23 02:29:14;;;;;;;3.05;1.05;;;4.00;99.90;;;;;;6209997;23;20005;-62
2023/12/23 02:32:02;;;;;;;4.43;1.30;;;4.00;99.90;;;;;;6210284;23;20436;-63
2023/12/23 02:34:49;;;;;;;1.27;0.93;;;4.00;99.90;;;;;;6209796;23;20016;-64
2023/12/23 02:37:34;;;;;;;4.13;1.02;;;4.00;99.90;;;;;;6210136;23;20012;-64
2023/12/23 02:40:21;;;;;;;2.38;1.00;;;4.00;99.90;;;;;;6210175;23;20024;-64
2023/12/23 02:43:06;;;;;;;4.28;1.30;;;3.90;99.90;;;;;;6211859;23;20051;-63
2023/12/23 02:45:52;;;;;;;2.60;1.40;;;3.90;99.90;;;;;;6210276;23;20009;-62
2023/12/23 02:48:38;;;;;;;3.97;1.27;;;3.80;99.90;;;;;;6210177;23;20020;-62
2023/12/23 02:51:25;;;;;;;5.38;1.40;;;3.80;99.90;;;;;;6209761;23;20126;-63
2023/12/23 02:54:11;;;;;;;2.42;1.30;;;3.80;99.90;;;;;;6209914;23;20024;-63
2023/12/23 02:56:57;;;;;;;2.13;1.00;;;3.80;99.90;;;;;;6210251;23;20013;-62
2023/12/23 02:59:43;;;;;;;0.98;0.75;;;3.70;99.90;;;;;;6208665;23;20021;-63
2023/12/23 03:02:28;;;;;;;2.75;0.95;;;3.80;99.90;;;;;;6210581;23;20012;-63
2023/12/23 03:05:15;;;;;;;2.83;1.10;;;3.80;99.90;;;;;;6209130;23;20013;-63
2023/12/23 03:08:01;;;;;;;1.60;0.90;;;3.80;99.90;;;;;;6209700;23;20013;-62
2023/12/23 03:10:47;;;;;;;1.17;0.80;;;3.80;99.90;;;;;;6208769;23;20506;-63
2023/12/23 03:13:33;;;;;;;2.75;1.00;;;3.80;99.90;;;;;;6209600;23;20515;-63
2023/12/23 03:16:19;;;;;;;3.00;1.10;;;3.80;99.90;;;;;;6210257;23;20437;-62
2023/12/23 03:19:05;;;;;;;1.80;0.82;;;3.80;99.90;;;;;;6210419;23;20023;-63
2023/12/23 03:21:51;;;;;;;1.65;0.73;;;3.80;99.90;;;;;;6209792;23;20228;-63
2023/12/23 03:24:37;;;;;;;3.85;1.15;;;3.70;99.90;;;;;;6188846;23;20009;-62
2023/12/23 03:27:23;;;;;;;2.00;0.80;;;3.70;99.90;;;;;;6208681;23;20082;-63
2023/12/23 03:30:10;;;;;;;3.47;0.95;;;3.70;99.90;;;;;;6210486;23;20005;-63
2023/12/23 03:32:55;;;;;;;1.02;0.60;;;3.70;99.90;;;;;;6210233;23;20445;-63
2023/12/23 03:35:42;;;;;;;3.78;1.23;;;3.70;99.90;;;;;;6209530;23;20027;-63
2023/12/23 03:38:28;;;;;;;2.83;1.40;;;3.70;99.90;;;;;;6209258;23;20433;-62
2023/12/23 03:41:13;;;;;;;2.42;1.13;;;3.70;99.90;;;;;;6190823;23;20009;-63
2023/12/23 03:43:59;;;;;;;4.72;1.38;;;3.80;99.90;;;;;;6208448;23;20045;-64
2023/12/23 03:46:45;;;;;;;3.58;0.95;;;3.80;99.90;;;;;;6208003;23;20103;-64
2023/12/23 03:49:31;;;;;;;2.45;1.00;;;3.80;99.90;;;;;;6209183;23;20012;-64
2023/12/23 03:52:17;;;;;;;3.25;1.00;;;3.90;99.90;;;;;;6210108;23;20005;-65
2023/12/23 03:55:03;;;;;;;5.88;1.38;;;3.90;99.90;;;;;;6210235;23;20024;-64
2023/12/23 03:57:49;;;;;;;1.70;0.90;;;3.90;99.90;;;;;;6209176;23;20091;-64
2023/12/23 04:00:35;;;;;;;2.45;1.55;;;3.90;99.90;;;;;;6209436;23;20326;-64
2023/12/23 04:03:21;;;;;;;3.35;1.25;;;3.90;99.90;;;;;;6207672;23;20341;-64
2023/12/23 04:06:07;;;;;;;2.47;0.77;;;4.00;99.90;;;;;;6209576;23;20337;-64
2023/12/23 04:08:53;;;;;;;1.85;1.33;;;4.00;99.90;;;;;;6210366;23;20374;-64
2023/12/23 04:11:40;;;;;;;4.72;1.40;;;4.00;99.90;;;;;;6209216;23;20464;-64
2023/12/23 04:14:25;;;;;;;5.03;1.40;;;4.00;99.90;;;;;;6210504;23;20012;-64
2023/12/23 04:17:11;;;;;;;2.35;1.13;;;4.10;99.90;;;;;;6208469;23;20362;-64
2023/12/23 04:19:57;;;;;;;4.40;1.13;;;4.20;99.90;;;;;;6206266;23;20047;-64
2023/12/23 04:22:47;;;;;;;3.13;1.20;;;4.20;99.90;;;;;;6209528;23;20036;-64
2023/12/23 04:25:33;;;;;;;5.25;1.67;;;4.10;99.90;;;;;;6209269;23;20018;-64
2023/12/23 04:28:24;;;;;;;6.25;1.60;;;4.10;99.90;;;;;;6210150;23;20012;-64
2023/12/23 04:31:10;;;;;;;6.47;1.73;;;4.20;99.90;;;;;;6209127;23;20013;-64
2023/12/23 04:33:56;;;;;;;5.65;1.63;;;4.20;99.90;;;;;;6208797;23;20013;-64
2023/12/23 04:36:42;;;;;;;4.35;1.48;;;4.20;99.90;;;;;;6208846;23;20000;-64
2023/12/23 04:39:28;;;;;;;4.85;1.88;;;4.20;99.90;;;;;;6208169;23;20021;-64
2023/12/23 04:42:14;;;;;;;3.72;1.67;;;4.30;99.90;;;;;;6210390;23;20079;-64
2023/12/23 04:45:00;;;;;;;5.80;2.03;;;4.30;99.90;;;;;;6209662;23;20048;-63
2023/12/23 04:47:45;;;;;;;5.57;2.38;;;4.40;99.90;;;;;;6211206;23;20009;-63
2023/12/23 04:50:31;;;;;;;7.55;1.80;;;4.40;99.90;;;;;;6211826;23;20019;-63
2023/12/23 04:53:18;;;;;;;6.38;1.70;;;4.40;99.90;;;;;;6211527;23;20349;-63
2023/12/23 04:56:05;;;;;;;3.85;1.60;;;4.50;99.90;;;;;;6210294;23;20016;-63
2023/12/23 04:58:50;;;;;;;8.15;2.33;;;4.50;99.90;;;;;;6211630;23;20469;-63
2023/12/23 05:01:36;;;;;;;5.93;1.83;;;4.60;99.90;;;;;;6208953;23;20009;-63
2023/12/23 05:04:23;;;;;;;6.90;2.08;;;4.50;99.90;;;;;;6190978;23;20486;-63
2023/12/23 05:07:08;;;;;;;6.40;2.35;;;4.60;99.90;;;;;;6212246;23;20012;-64
2023/12/23 05:09:54;;;;;;;6.78;2.00;;;4.60;99.90;;;;;;6210819;23;20016;-63
2023/12/23 05:12:40;;;;;;;5.10;1.83;;;4.60;99.90;;;;;;6210705;23;20009;-63
2023/12/23 05:15:26;;;;;;;6.15;1.75;;;4.70;99.90;;;;;;6210233;23;20019;-64
2023/12/23 05:18:12;;;;;;;8.57;2.63;;;4.70;99.90;;;;;;6209218;23;20024;-63
2023/12/23 05:20:58;;;;;;;11.98;2.38;;;4.70;99.90;;;;;;6211141;23;20070;-63
2023/12/23 05:23:44;;;;;;;8.75;2.00;;;4.80;99.90;;;;;;6209644;23;20016;-62
2023/12/23 05:26:30;;;;;;;8.75;3.38;;;4.80;99.90;;;;;;6210994;23;20005;-63
2023/12/23 05:29:16;;;;;;;8.68;2.33;;;4.90;99.90;;;;;;6210992;23;20031;-62
2023/12/23 05:32:03;;;;;;;10.25;2.15;;;4.90;99.90;;;;;;6210691;23;20015;-63
2023/12/23 05:34:49;;;;;;;12.77;2.40;;;4.90;99.90;;;;;;6208756;23;20008;-63
2023/12/23 05:37:35;;;;;;;12.48;3.03;;;4.80;99.90;;;;;;6210675;23;20471;-64
2023/12/23 05:40:20;;;;;;;7.03;2.22;;;4.90;99.90;;;;;;6210689;23;20017;-64
2023/12/23 05:43:06;;;;;;;8.52;2.25;;;5.00;99.90;;;;;;6209851;23;20372;-64
2023/12/23 05:45:52;;;;;;;6.05;2.53;;;5.00;99.90;;;;;;6209576;23;20012;-63
2023/12/23 05:48:38;;;;;;;5.45;2.47;;;5.00;99.90;;;;;;6210344;23;20013;-63
2023/12/23 05:51:24;;;;;;;6.90;2.10;;;4.90;99.90;;;;;;6208721;23;20017;-63
2023/12/23 05:54:10;;;;;;;5.68;2.45;;;5.00;99.90;;;;;;6209512;23;20051;-63
2023/12/23 05:56:56;;;;;;;6.75;2.53;;;5.00;99.90;;;;;;6208306;23;20036;-63
2023/12/23 05:59:42;;;;;;;5.60;1.58;;;5.00;99.90;;;;;;6210979;23;20021;-64
2023/12/23 06:02:28;;;;;;;7.18;2.40;;;5.00;99.90;;;;;;6189988;23;20005;-64
2023/12/23 06:05:14;;;;;;;7.95;2.15;;;5.10;99.90;;;;;;6211745;23;20016;-63
2023/12/23 06:08:00;;;;;;;5.75;2.20;;;5.00;99.90;;;;;;6209278;23;20008;-64
2023/12/23 06:10:46;;;;;;;5.50;1.90;;;5.10;99.90;;;;;;6211562;23;20008;-63
2023/12/23 06:13:32;;;;;;;5.28;1.92;;;5.10;99.90;;;;;;6211691;23;20004;-63
2023/12/23 06:16:18;;;;;;;9.63;2.72;;;5.20;99.90;;;;;;6211329;23;20036;-63
2023/12/23 06:19:04;;;;;;;12.50;2.13;;;5.10;99.90;;;;;;6211043;23;20027;-63
2023/12/23 06:21:50;;;;;;;8.48;2.33;;;5.10;99.90;;;;;;6210823;23;20019;-63
2023/12/23 06:24:36;;;;;;;4.82;1.77;;;5.20;99.90;;;;;;6209317;23;20078;-62
2023/12/23 06:27:22;;;;;;;7.22;2.05;;;5.20;99.90;;;;;;6210332;23;20327;-63
2023/12/23 06:30:08;;;;;;;5.70;1.63;;;5.20;99.90;;;;;;6210425;23;20012;-63
2023/12/23 06:32:54;;;;;;;8.88;2.35;;;5.20;99.90;;;;;;6210455;23;20009;-62
2023/12/23 06:35:40;;;;;;;6.85;2.25;;;5.10;99.90;;;;;;6210723;23;20012;-63
2023/12/23 06:38:25;;;;;;;7.20;2.00;;;5.20;99.90;;;;;;6209750;23;20016;-63
2023/12/23 06:41:12;;;;;;;7.03;1.80;;;5.20;99.90;;;;;;6209083;23;20517;-63
2023/12/23 06:43:58;;;;;;;6.97;2.42;;;5.20;99.90;;;;;;6210403;23;20017;-63
2023/12/23 06:46:44;;;;;;;7.35;1.77;;;5.20;99.90;;;;;;6210298;23;20009;-64
2023/12/23 06:49:30;;;;;;;5.95;1.88;;;5.20;99.90;;;;;;6190301;23;20386;-64
2023/12/23 06:52:16;;;;;;;3.33;1.65;;;5.30;99.90;;;;;;6209840;23;20433;-65
2023/12/23 06:55:02;;;;;;;7.53;2.25;;;5.30;99.90;;;;;;6209089;23;20051;-69
2023/12/23 06:57:48;;;;;;;4.95;1.77;;;5.30;99.90;;;;;;6210283;23;20013;-63
2023/12/23 07:00:34;;;;;;;7.43;1.85;;;5.30;99.90;;;;;;6208843;23;20112;-63
2023/12/23 07:03:21;;;;;;;6.55;2.25;;;5.30;99.90;;;;;;6208218;23;20012;-64
2023/12/23 07:06:10;;;;;;;8.13;3.08;;;5.40;99.90;;;;;;6210882;23;20008;-63
2023/12/23 07:08:56;;;;;;;6.22;2.45;;;5.30;99.90;;;;;;6209629;23;20016;-63
2023/12/23 07:11:42;;;;;;;4.90;1.83;;;5.30;99.90;;;;;;6207408;23;20013;-62
2023/12/23 07:14:28;;;;;;;4.15;1.90;;;5.30;99.90;;;;;;6210320;23;20008;-63
2023/12/23 07:17:14;;;;;;;6.13;1.75;;;5.30;99.90;;;;;;6209942;23;20472;-62
2023/12/23 07:20:00;;;;;;;6.65;2.08;;;5.30;99.90;;;;;;6208492;23;20349;-63
2023/12/23 07:22:46;;;;;;;5.75;1.70;;;5.30;99.90;;;;;;6209175;23;20005;-63
2023/12/23 07:25:32;;;;;;;6.15;2.00;;;5.30;99.90;;;;;;6209580;23;20016;-63
2023/12/23 07:28:18;;;;;;;5.50;1.98;;;5.20;99.90;;;;;;6190208;23;20089;-63
2023/12/23 07:31:04;;;;;;;3.05;1.40;;;5.20;99.90;;;;;;6210858;23;20015;-63
2023/12/23 07:33:49;;;;;;;6.28;1.95;;;5.20;99.90;;;;;;6210375;23;20031;-63
2023/12/23 07:36:36;;;;;;;6.15;1.65;;;5.20;99.90;;;;;;6208406;23;20268;-63
2023/12/23 07:39:21;;;;;;;5.43;1.73;;;5.20;99.90;;;;;;6208694;23;20103;-63
2023/12/23 07:42:07;;;;;;;6.47;1.98;;;5.20;99.90;;;;;;6208832;23;20009;-61
2023/12/23 07:44:53;;;;;;;5.18;1.67;;;5.10;99.90;;;;;;6210317;23;20012;-61
2023/12/23 07:47:39;;;;;;;3.17;1.42;;;5.10;99.90;;;;;;6208542;23;20345;-62
2023/12/23 07:50:27;;;;;;;3.35;1.50;;;5.10;99.90;;;;;;6208563;23;20008;-62
2023/12/23 07:53:13;;;;;;;6.93;1.75;;;5.20;99.90;;;;;;6208551;23;20100;-62
2023/12/23 07:55:59;;;;;;;4.32;1.75;;;5.20;99.90;;;;;;6206777;23;20019;-62
2023/12/23 07:58:44;;;;;;;3.58;1.23;;;5.20;99.90;;;;;;6210044;23;20028;-62
2023/12/23 08:01:32;;;;;;;4.47;2.08;;;5.30;99.90;;;;;;6209049;23;20036;-62
2023/12/23 08:04:17;;;;;;;3.83;1.55;;;5.30;99.90;;;;;;6209624;23;20021;-61
2023/12/23 08:07:03;;;;;;;5.85;1.63;;;5.30;99.90;;;;;;6209411;23;20349;-62
2023/12/23 08:09:49;;;;;;;3.53;1.88;;;5.30;99.90;;;;;;6208516;23;20504;-61
2023/12/23 08:12:35;;;;;;;4.30;1.40;;;5.30;99.90;;;;;;6209545;23;20009;-62
2023/12/23 08:15:21;;;;;;;3.83;1.50;;;5.30;99.90;;;;;;6211441;23;20414;-62
2023/12/23 08:18:07;;;;;;;2.08;1.38;;;5.40;99.90;;;;;;6211967;23;20506;-63
2023/12/23 08:20:53;;;;;;;4.80;2.00;;;5.30;99.90;;;;;;6208779;23;20017;-62
2023/12/23 08:23:39;;;;;;;4.78;1.65;;;5.30;99.90;;;;;;6211565;23;20020;-63
2023/12/23 08:26:25;;;;;;;3.10;1.40;;;5.40;99.90;;;;;;6212414;23;20085;-63
2023/12/23 08:29:11;;;;;;;3.17;1.63;;;5.40;99.90;;;;;;6211165;23;20008;-63
2023/12/23 08:31:57;;;;;;;3.88;1.65;;;5.40;99.90;;;;;;6210098;23;20011;-63
2023/12/23 08:34:46;;;;;;;4.50;1.92;;;5.40;99.90;;;;;;6211958;23;20009;-63
2023/12/23 08:37:32;;;;;;;5.90;1.95;;;5.40;99.90;;;;;;6212097;23;20009;-63
2023/12/23 08:40:18;;;;;;;4.03;1.35;;;5.50;99.90;;;;;;6209133;23;20024;-64
2023/12/23 08:43:04;;;;;;;2.83;1.60;;;5.40;99.90;;;;;;6211030;23;20461;-67
2023/12/23 08:45:50;;;;;;;5.25;2.40;;;5.50;99.90;;;;;;6210663;23;20017;-65
2023/12/23 08:48:37;;;;;;;6.20;2.25;;;5.50;99.90;;;;;;6211045;23;20005;-63
2023/12/23 08:51:23;;;;;;;3.20;1.75;;;5.50;99.90;;;;;;6212111;23;20091;-62
2023/12/23 08:54:09;;;;;;;3.00;1.58;;;5.50;99.90;;;;;;6212437;23;20092;-62
2023/12/23 08:56:55;;;;;;;7.00;2.38;;;5.50;99.90;;;;;;6210028;23;20096;-62
2023/12/23 08:59:41;;;;;;;7.88;2.72;;;5.50;99.90;;;;;;6209672;23;20027;-62
2023/12/23 09:02:27;;;;;;;6.90;2.30;;;5.50;99.90;;;;;;6211918;23;20013;-62
2023/12/23 09:05:13;;;;;;;7.05;1.77;;;5.50;99.90;;;;;;6208980;23;20123;-62
2023/12/23 09:07:59;;;;;;;6.57;2.53;;;5.50;99.90;;;;;;6211266;23;20009;-62
2023/12/23 09:10:45;;;;;;;7.85;2.50;;;5.60;99.90;;;;;;6209548;23;20012;-61
2023/12/23 09:13:31;;;;;;;5.90;2.55;;;5.50;99.90;;;;;;6211197;23;20062;-61
2023/12/23 09:16:17;;;;;;;4.57;2.22;;;5.60;99.90;;;;;;6211343;23;20020;-61
2023/12/23 09:19:03;;;;;;;5.70;2.10;;;5.60;99.90;;;;;;6211251;23;20102;-62
2023/12/23 09:21:49;;;;;;;6.90;2.58;;;5.60;99.90;;;;;;6210776;23;20009;-62
2023/12/23 09:24:35;;;;;;;4.63;2.20;;;5.60;99.90;;;;;;6210381;23;20005;-61
2023/12/23 09:27:21;;;;;;;7.05;2.88;;;5.60;99.90;;;;;;6213174;23;20009;-63
2023/12/23 09:30:07;;;;;;;3.17;2.45;;;5.70;99.90;;;;;;6209952;23;20008;-63
2023/12/23 09:32:53;;;;;;;5.53;2.10;;;5.60;99.90;;;;;;6205050;23;20077;-61
2023/12/23 09:35:39;;;;;;;4.57;1.77;;;5.60;99.90;;;;;;6209756;23;20009;-63
2023/12/23 09:38:25;;;;;;;3.95;2.05;;;5.60;99.90;;;;;;6210715;23;20306;-66
2023/12/23 09:41:11;;;;;;;2.63;1.58;;;5.60;99.90;;;;;;6209189;23;20369;-66
2023/12/23 09:43:57;;;;;;;5.30;1.88;;;5.60;99.90;;;;;;6210928;23;20009;-66
2023/12/23 09:46:43;;;;;;;3.45;1.60;;;5.60;99.90;;;;;;6208257;23;20024;-66
2023/12/23 09:49:29;;;;;;;4.07;1.83;;;5.60;99.90;;;;;;6211167;23;20015;-66
2023/12/23 09:52:15;;;;;;;3.72;1.88;;;5.50;99.90;;;;;;6207619;23;20008;-65
2023/12/23 09:55:03;;;;;;;1.75;1.40;;;5.40;99.90;;;;;;6180569;23;20020;-66
2023/12/23 09:57:49;;;;;;;6.55;2.83;;;5.30;99.90;;;;;;6179903;23;20009;-66
2023/12/23 10:00:35;;;;;;;6.70;1.85;;;5.30;99.90;;;;;;6179915;23;20013;-66
2023/12/23 10:03:22;;;;;;;5.15;1.95;;;5.30;99.90;;;;;;6177187;23;20092;-66
2023/12/23 10:06:13;;;;;;;4.63;1.70;;;5.20;99.90;;;;;;6179323;23;20009;-66
2023/12/23 10:08:58;;;;;;;2.97;1.60;;;5.30;99.90;;;;;;6176248;23;20021;-67
2023/12/23 10:11:44;;;;;;;3.17;1.42;;;5.20;99.90;;;;;;6178215;23;20541;-67
2023/12/23 10:14:30;;;;;;;4.60;1.50;;;5.20;99.90;;;;;;6178010;23;20009;-67
2023/12/23 10:17:19;;;;;;;4.30;1.30;;;5.10;99.90;;;;;;6180186;23;20008;-67
2023/12/23 10:20:06;;;;;;;2.33;1.10;;;5.10;99.90;;;;;;6159606;23;20021;-66
2023/12/23 10:22:52;;;;;;;2.30;1.23;;;5.10;99.90;;;;;;6181043;23;20099;-68
2023/12/23 10:25:38;;;;;;;1.40;1.15;;;5.10;99.90;;;;;;6180386;23;20076;-68
2023/12/23 10:28:25;;;;;;;1.95;1.20;;;5.00;99.90;;;;;;6178877;23;20009;-68
2023/12/23 10:31:13;;;;;;;2.03;1.10;;;5.00;99.90;;;;;;6179041;23;20570;-68
2023/12/23 10:34:11;;;;;;;2.92;1.40;;;5.00;99.90;;;;;;6179261;23;20005;-68
2023/12/23 10:36:58;;;;;;;4.03;1.60;;;5.00;99.90;;;;;;6180141;23;20013;-65
2023/12/23 10:39:57;;;;;;;1.77;1.35;;;5.00;99.90;;;;;;6181499;23;20410;-67
2023/12/23 10:42:44;;;;;;;4.00;1.90;;;5.00;99.90;;;;;;6180810;23;20055;-67
2023/12/23 10:45:31;;;;;;;3.05;1.45;;;5.10;99.90;;;;;;6158208;23;20020;-67
2023/12/23 10:48:17;;;;;;;5.20;1.67;;;5.00;99.90;;;;;;6178633;23;20009;-62
2023/12/23 10:51:04;;;;;;;2.65;1.58;;;5.10;99.90;;;;;;6179567;23;20491;-62
2023/12/23 10:53:53;;;;;;;3.20;1.55;;;5.10;99.90;;;;;;6196095;23;20046;-61
2023/12/23 10:56:40;;;;;;;2.55;1.48;;;5.10;99.90;;;;;;6209098;23;20047;-62
2023/12/23 10:59:26;;;;;;;3.40;1.90;;;5.20;99.90;;;;;;6210238;23;20071;-61
2023/12/23 11:02:15;;;;;;;5.07;2.00;;;5.20;99.90;;;;;;6208639;23;20004;-61
2023/12/23 11:05:06;;;;;;;4.80;1.65;;;5.20;99.90;;;;;;6207508;23;20008;-62
2023/12/23 11:07:55;;;;;;;3.72;1.92;;;5.20;99.90;;;;;;6208067;23;20009;-62
2023/12/23 11:10:42;;;;;;;4.22;1.85;;;5.20;99.90;;;;;;6210704;23;20016;-62
2023/12/23 11:13:28;;;;;;;4.97;2.00;;;5.20;99.90;;;;;;6210103;23;20019;-62
2023/12/23 11:16:17;;;;;;;3.28;1.70;;;5.20;99.90;;;;;;6208041;23;20019;-61
2023/12/23 11:19:04;;;;;;;3.17;1.65;;;5.30;99.90;;;;;;6209744;23;20020;-62
2023/12/23 11:22:19;;;;;;;3.72;1.92;;;5.30;99.90;;;;;;6211608;23;20017;-62
2023/12/23 11:25:38;;;;;;;2.28;1.58;;;5.20;99.90;;;;;;6210306;23;20090;-63
2023/12/23 11:28:26;;;;;;;2.75;1.60;;;5.20;99.90;;;;;;6211843;23;20095;-61
2023/12/23 11:31:11;;;;;;;3.97;2.45;;;5.30;99.90;;;;;;6207900;23;20346;-61
2023/12/23 11:34:01;;;;;;;7.22;2.70;;;5.30;99.90;;;;;;6207673;23;20012;-66
2023/12/23 11:36:47;;;;;;;2.45;1.80;;;5.30;99.90;;;;;;6210961;23;20088;-61
2023/12/23 11:39:34;;;;;;;3.80;1.88;;;5.30;99.90;;;;;;6205711;23;20025;-61
2023/12/23 11:42:20;;;;;;;3.58;2.00;;;5.30;99.90;;;;;;6209324;23;20095;-61
2023/12/23 11:45:07;;;;;;;3.72;1.50;;;5.20;99.90;;;;;;6210185;23;20012;-61
2023/12/23 11:47:54;;;;;;;2.92;1.70;;;5.20;99.90;;;;;;6210004;23;20319;-61
2023/12/23 11:50:43;;;;;;;5.80;1.42;;;5.10;99.90;;;;;;6211442;23;20480;-62
2023/12/23 11:53:29;;;;;;;3.67;1.40;;;5.10;99.90;;;;;;6211416;23;20346;-62
2023/12/23 11:56:16;;;;;;;2.92;2.10;;;5.10;99.90;;;;;;6211403;23;20448;-61
2023/12/23 11:59:02;;;;;;;2.53;1.40;;;5.10;99.90;;;;;;6207889;23;20077;-62
2023/12/23 12:01:48;;;;;;;3.85;1.45;;;5.00;99.90;;;;;;6209972;23;20012;-63
2023/12/23 12:04:34;;;;;;;2.78;1.45;;;5.00;99.90;;;;;;6212128;23;20044;-63
2023/12/23 12:07:21;;;;;;;2.30;1.40;;;5.00;99.90;;;;;;6209714;23;20046;-62
2023/12/23 12:10:07;;;;;;;5.25;1.25;;;5.00;99.90;;;;;;6210999;23;20008;-63
2023/12/23 12:12:53;;;;;;;1.40;1.10;;;4.90;99.90;;;;;;6212436;23;20005;-61
2023/12/23 12:15:41;;;;;;;4.25;1.50;;;4.90;99.90;;;;;;6211924;23;20070;-62
2023/12/23 12:18:27;;;;;;;3.00;1.45;;;4.90;99.90;;;;;;6210531;23;20051;-62
2023/12/23 12:21:13;;;;;;;1.83;1.08;;;4.80;99.90;;;;;;6211692;23;20015;-62
2023/12/23 12:23:59;;;;;;;3.67;1.23;;;4.70;99.90;;;;;;6210645;23;20091;-62
2023/12/23 12:26:52;;;;;;;2.40;1.20;;;4.70;99.90;;;;;;6211046;23;20017;-62
2023/12/23 12:29:38;;;;;;;2.47;1.70;;;4.70;99.90;;;;;;6212544;23;20005;-62
2023/12/23 12:32:24;;;;;;;3.97;1.50;;;4.70;99.90;;;;;;6212491;23;20063;-63
2023/12/23 12:35:14;;;;;;;5.68;1.67;;;4.70;99.90;;;;;;6209831;23;20008;-63
2023/12/23 12:38:00;;;;;;;3.15;1.50;;;4.70;99.90;;;;;;6211036;23;20048;-63
2023/12/23 12:40:46;;;;;;;2.97;1.75;;;4.80;99.90;;;;;;6211244;23;20020;-63
2023/12/23 12:43:34;;;;;;;2.83;1.50;;;4.80;99.90;;;;;;6211475;23;20012;-63
2023/12/23 12:46:20;;;;;;;3.15;1.70;;;4.90;99.90;;;;;;6211900;23;20005;-63
2023/12/23 12:49:06;;;;;;;2.20;1.52;;;4.90;99.90;;;;;;6211432;23;20036;-62
2023/12/23 12:51:53;;;;;;;3.72;2.22;;;4.80;99.90;;;;;;6209439;23;20330;-62
2023/12/23 12:54:39;;;;;;;3.60;1.88;;;4.90;99.90;;;;;;6210298;23;20479;-62
2023/12/23 12:57:28;;;;;;;3.25;1.80;;;4.90;99.90;;;;;;6210752;23;20005;-62
2023/12/23 13:00:15;;;;;;;3.65;1.92;;;4.90;99.90;;;;;;6209066;23;20071;-62
2023/12/23 13:03:01;;;;;;;2.95;1.42;;;4.90;99.90;;;;;;6210577;23;20095;-62
2023/12/23 13:05:46;;;;;;;3.38;1.60;;;4.90;99.90;;;;;;6209615;23;20040;-63
2023/12/23 13:08:32;;;;;;;3.22;1.70;;;5.00;99.90;;;;;;6209824;23;20008;-63
2023/12/23 13:11:19;;;;;;;2.97;1.60;;;5.00;99.90;;;;;;6211037;23;20058;-63
2023/12/23 13:14:04;;;;;;;3.13;1.70;;;5.00;99.90;;;;;;6211972;23;20048;-63
2023/12/23 13:16:50;;;;;;;3.35;2.05;;;5.10;99.90;;;;;;6210189;23;20341;-63
2023/12/23 13:19:37;;;;;;;3.55;1.55;;;5.10;99.90;;;;;;6210320;23;20456;-63
2023/12/23 13:22:23;;;;;;;2.92;1.40;;;5.10;99.90;;;;;;6208463;23;20071;-62
2023/12/23 13:25:09;;;;;;;3.28;1.80;;;5.10;99.90;;;;;;6211834;23;20044;-63
2023/12/23 13:27:55;;;;;;;3.75;1.88;;;5.10;99.90;;;;;;6211964;23;20013;-62
2023/12/23 13:30:41;;;;;;;3.88;1.65;;;5.10;99.90;;;;;;6209582;23;20080;-67
2023/12/23 13:33:28;;;;;;;2.28;1.35;;;5.10;99.90;;;;;;6211644;23;20009;-62
2023/12/23 13:36:14;;;;;;;5.03;1.80;;;5.10;99.90;;;;;;6189601;23;20051;-62
2023/12/23 13:39:13;;;;;;;2.70;1.50;;;5.10;99.90;;;;;;6209296;23;20460;-63
2023/12/23 13:41:59;;;;;;;2.83;1.20;;;5.10;99.90;;;;;;6210060;23;20426;-63
2023/12/23 13:44:45;;;;;;;3.75;1.25;;;5.10;99.90;;;;;;6211713;23;20354;-66
2023/12/23 13:47:31;;;;;;;3.08;1.17;;;5.10;99.90;;;;;;6210948;23;20009;-62
2023/12/23 13:50:17;;;;;;;1.88;1.10;;;5.10;99.90;;;;;;6211021;23;20019;-63
2023/12/23 13:53:03;;;;;;;2.13;1.30;;;5.10;99.90;;;;;;6210602;23;20013;-63
2023/12/23 13:55:50;;;;;;;1.65;1.13;;;5.10;99.90;;;;;;6209415;23;20012;-64
2023/12/23 13:58:36;;;;;;;3.00;1.13;;;5.10;99.90;;;;;;6209137;23;20107;-62
2023/12/23 14:01:21;;;;;;;1.90;1.10;;;5.10;99.90;;;;;;6209260;23;20017;-63
2023/12/23 14:04:07;;;;;;;2.38;1.25;;;5.10;99.90;;;;;;6209256;23;20452;-63
2023/12/23 14:06:53;;;;;;;1.75;1.20;;;5.10;99.90;;;;;;6211032;23;20062;-63
2023/12/23 14:09:39;;;;;;;2.33;1.40;;;5.10;99.90;;;;;;6209372;23;20361;-62
2023/12/23 14:12:25;;;;;;;2.08;1.42;;;5.10;99.90;;;;;;6209788;23;20012;-63
2023/12/23 14:15:11;;;;;;;3.00;1.50;;;5.10;99.90;;;;;;6208825;23;20008;-63
2023/12/23 14:17:57;;;;;;;2.00;1.42;;;5.10;99.90;;;;;;6210183;23;20015;-64
2023/12/23 14:20:43;;;;;;;1.98;1.13;;;5.20;99.90;;;;;;6213302;23;20029;-62
2023/12/23 14:23:29;;;;;;;1.42;1.10;;;5.10;99.90;;;;;;6210256;23;20019;-62
2023/12/23 14:26:15;;;;;;;2.03;1.20;;;5.20;99.90;;;;;;6210086;23;20022;-62
2023/12/23 14:29:00;;;;;;;3.50;1.48;;;5.10;99.90;;;;;;6209550;23;20011;-62
2023/12/23 14:31:48;;;;;;;2.25;1.20;;;5.20;99.90;;;;;;6209423;23;20444;-62
2023/12/23 14:34:34;;;;;;;1.85;1.20;;;5.20;99.90;;;;;;6209635;23;20020;-63
2023/12/23 14:37:20;;;;;;;2.75;1.50;;;5.20;99.90;;;;;;6210265;23;20023;-62
2023/12/23 14:40:06;;;;;;;3.30;1.63;;;5.10;99.90;;;;;;6210555;23;20055;-62